^^
Station Historical Data
 
Daily Summary for February 22, 2018 Units:  English    Metric   Both
« Previous Day
Next Day »
Daily Weekly Monthly Yearly Custom
  Current: High: Low: Average:
Temperature: 22.3 °F 27.0 °F 10.6 °F 18.6 °F
Dew Point: 19.8 °F 20.7 °F 8.0 °F 14.2 °F
Humidity: 90% 90% 69% 83%
Wind Speed: 0.0mph 3.0mph 0.0mph 0.5mph
Wind Gust: 4.0mph 8.0mph - -
WindCalm - - SSW
Pressure: 30.44 in 30.58 in 30.34 in -
Precipitation: 0.00 in      
Historical Graphs
 
 
Tabular Data for February 22, 2018
Time Temperature Dew Point Pressure Wind Wind Speed Wind Gust Humidity Rainfall Rate (Hourly) solar Conditions
00:00 13.2 °F 10.3 °F 30.58 in Calm     88% 0.00 in 0.0 W/m2 SCT
00:10 13.4 °F 10.8 °F 30.58 in Calm     89% 0.00 in 0.0 W/m2 SCT
00:15 13.5 °F 10.9 °F 30.57 in Calm     89% 0.00 in 0.0 W/m2 SCT
00:20 13.1 °F 10.2 °F 30.58 in Calm     88% 0.00 in 0.0 W/m2 SCT
00:25 12.6 °F 9.7 °F 30.58 in Calm     88% 0.00 in 0.0 W/m2 SCT
00:30 12.5 °F 9.6 °F 30.57 in Calm     88% 0.00 in 0.0 W/m2 SCT
00:35 12.6 °F 10.0 °F 30.57 in Calm     89% 0.00 in 0.0 W/m2 SCT
00:40 12.3 °F 9.4 °F 30.57 in Calm     88% 0.00 in 0.0 W/m2 SCT
00:45 12.1 °F 9.3 °F 30.57 in Calm     88% 0.00 in 0.0 W/m2 SCT
00:50 12.2 °F 9.6 °F 30.57 in Calm     89% 0.00 in 0.0 W/m2 SCT
00:55 12.3 °F 9.6 °F 30.56 in Calm     89% 0.00 in 0.0 W/m2 SCT
01:00 12.4 °F 9.8 °F 30.56 in Calm     89% 0.00 in 0.0 W/m2 SCT
01:10 12.8 °F 10.4 °F 30.56 in Calm     90% 0.00 in 0.0 W/m2 SCT
01:15 12.9 °F 10.3 °F 30.56 in Calm     89% 0.00 in 0.0 W/m2 SCT
01:20 13.0 °F 10.7 °F 30.55 in Calm     90% 0.00 in 0.0 W/m2 SCT
01:30 13.2 °F 10.6 °F 30.55 in Calm     89% 0.00 in 0.0 W/m2 SCT
01:35 13.2 °F 10.6 °F 30.54 in Calm     89% 0.00 in 0.0 W/m2 SCT
01:40 13.2 °F 10.6 °F 30.54 in Calm     89% 0.00 in 0.0 W/m2 SCT
01:50 12.9 °F 10.3 °F 30.53 in Calm     89% 0.00 in 0.0 W/m2 SCT
02:10 13.8 °F 11.4 °F 30.53 in Calm     90% 0.00 in 0.0 W/m2 SCT
02:15 14.0 °F 11.4 °F 30.52 in Calm     89% 0.00 in 0.0 W/m2 SCT
02:20 13.9 °F 11.3 °F 30.52 in NW 1.0 mph 6.0 mph 89% 0.00 in 0.0 W/m2 SCT
02:25 13.4 °F 10.6 °F 30.52 in NNW 1.0 mph 4.0 mph 88% 0.00 in 0.0 W/m2 SCT
02:35 13.0 °F 9.8 °F 30.52 in NNW 1.0 mph 3.0 mph 87% 0.00 in 0.0 W/m2 SCT
02:40 12.9 °F 9.8 °F 30.51 in North 1.0 mph 4.0 mph 87% 0.00 in 0.0 W/m2 SCT
02:45 13.0 °F 9.9 °F 30.51 in North 1.0 mph 4.0 mph 87% 0.00 in 0.0 W/m2 SCT
02:50 13.0 °F 9.9 °F 30.50 in North 1.0 mph 2.0 mph 87% 0.00 in 0.0 W/m2 SCT
02:55 13.0 °F 9.9 °F 30.50 in NNW 1.0 mph 3.0 mph 87% 0.00 in 0.0 W/m2 SCT
03:00 13.0 °F 9.9 °F 30.50 in North 1.0 mph 2.0 mph 87% 0.00 in 0.0 W/m2 SCT
03:10 12.8 °F 9.7 °F 30.50 in Calm   3.0 mph 87% 0.00 in 0.0 W/m2 SCT
03:15 12.7 °F 9.6 °F 30.50 in Calm     87% 0.00 in 0.0 W/m2 SCT
03:20 12.6 °F 9.5 °F 30.50 in Calm     87% 0.00 in 0.0 W/m2 SCT
03:25 12.5 °F 9.6 °F 30.50 in Calm     88% 0.00 in 0.0 W/m2 SCT
03:30 12.5 °F 9.6 °F 30.49 in Calm     88% 0.00 in 0.0 W/m2 SCT
03:35 12.5 °F 9.6 °F 30.50 in Calm     88% 0.00 in 0.0 W/m2 SCT
03:40 12.6 °F 9.7 °F 30.50 in Calm     88% 0.00 in 0.0 W/m2 SCT
03:45 12.6 °F 9.7 °F 30.50 in Calm     88% 0.00 in 0.0 W/m2 SCT
03:50 12.6 °F 9.7 °F 30.50 in Calm     88% 0.00 in 0.0 W/m2 SCT
03:55 12.4 °F 9.5 °F 30.50 in Calm     88% 0.00 in 0.0 W/m2 SCT
04:00 12.2 °F 9.3 °F 30.49 in Calm     88% 0.00 in 0.0 W/m2 SCT
04:10 11.6 °F 8.7 °F 30.49 in Calm     88% 0.00 in 0.0 W/m2 SCT
04:15 11.5 °F 8.6 °F 30.49 in Calm     88% 0.00 in 0.0 W/m2 SCT
04:20 11.2 °F 8.3 °F 30.48 in Calm     88% 0.00 in 0.0 W/m2 SCT
04:25 11.0 °F 8.4 °F 30.48 in Calm     89% 0.00 in 0.0 W/m2 SCT
04:30 10.8 °F 8.2 °F 30.48 in Calm     89% 0.00 in 0.0 W/m2 SCT
04:35 10.7 °F 8.1 °F 30.48 in Calm     89% 0.00 in 0.0 W/m2 SCT
04:40 10.6 °F 8.0 °F 30.47 in Calm     89% 0.00 in 0.0 W/m2 SCT
04:45 10.8 °F 8.2 °F 30.47 in Calm     89% 0.00 in 0.0 W/m2 SCT
04:50 10.9 °F 8.5 °F 30.48 in Calm     90% 0.00 in 0.0 W/m2 SCT
04:55 11.1 °F 8.8 °F 30.47 in Calm     90% 0.00 in 0.0 W/m2 SCT
05:00 11.4 °F 9.0 °F 30.47 in Calm     90% 0.00 in 0.0 W/m2 SCT
05:10 12.1 °F 9.7 °F 30.47 in Calm     90% 0.00 in 0.0 W/m2 SCT
05:15 12.5 °F 10.1 °F 30.47 in Calm     90% 0.00 in 0.0 W/m2 SCT
05:20 12.8 °F 10.4 °F 30.46 in Calm   1.0 mph 90% 0.00 in 0.0 W/m2 SCT
05:25 12.8 °F 10.4 °F 30.46 in Calm   1.0 mph 90% 0.00 in 0.0 W/m2 SCT
05:30 12.8 °F 10.4 °F 30.46 in NNW 1.0 mph 3.0 mph 90% 0.00 in 0.0 W/m2 SCT
05:35 12.7 °F 10.1 °F 30.46 in Calm   2.0 mph 89% 0.00 in 0.0 W/m2 SCT
05:40 12.5 °F 9.9 °F 30.46 in Calm   2.0 mph 89% 0.00 in 0.0 W/m2 SCT
05:45 12.4 °F 9.8 °F 30.46 in Calm     89% 0.00 in 0.0 W/m2 SCT
05:50 12.4 °F 9.8 °F 30.46 in Calm   1.0 mph 89% 0.00 in 0.0 W/m2 SCT
05:55 12.3 °F 9.7 °F 30.46 in Calm   1.0 mph 89% 0.00 in 0.0 W/m2 SCT
06:00 12.4 °F 9.7 °F 30.46 in Calm   1.0 mph 89% 0.00 in 0.0 W/m2 SCT
06:10 12.5 °F 9.9 °F 30.46 in Calm   1.0 mph 89% 0.00 in 0.0 W/m2 SCT
06:15 12.7 °F 10.1 °F 30.47 in Calm   1.0 mph 89% 0.00 in 0.0 W/m2 SCT
06:20 12.8 °F 10.2 °F 30.46 in Calm   1.0 mph 89% 0.00 in 0.0 W/m2 SCT
06:25 13.0 °F 10.4 °F 30.46 in Calm   1.0 mph 89% 0.00 in 0.0 W/m2 SCT
06:30 13.1 °F 10.5 °F 30.46 in Calm     89% 0.00 in 0.0 W/m2 SCT
06:35 13.2 °F 10.6 °F 30.46 in Calm     89% 0.00 in 0.0 W/m2 SCT
06:40 13.3 °F 10.7 °F 30.46 in Calm   1.0 mph 89% 0.00 in 0.0 W/m2 SCT
06:45 13.4 °F 10.8 °F 30.46 in Calm   1.0 mph 89% 0.00 in 0.0 W/m2 SCT
06:50 13.5 °F 10.9 °F 30.46 in Calm     89% 0.00 in 0.0 W/m2 SCT
06:55 13.5 °F 10.9 °F 30.46 in Calm     89% 0.00 in 5.0 W/m2 BKN
07:00 13.6 °F 11.0 °F 30.46 in Calm     89% 0.00 in 7.0 W/m2 BKN
07:10 14.0 °F 11.1 °F 30.45 in Calm     88% 0.00 in 14.0 W/m2 BKN
07:15 14.1 °F 11.2 °F 30.45 in Calm     88% 0.00 in 14.0 W/m2 BKN
07:20 14.2 °F 11.3 °F 30.45 in Calm   1.0 mph 88% 0.00 in 16.0 W/m2 BKN
07:25 14.2 °F 11.3 °F 30.45 in Calm   2.0 mph 88% 0.00 in 23.0 W/m2 BKN
07:30 14.3 °F 11.4 °F 30.45 in Calm   1.0 mph 88% 0.00 in 25.0 W/m2 BKN
07:35 14.3 °F 11.4 °F 30.45 in Calm   1.0 mph 88% 0.00 in 28.0 W/m2 BKN
07:40 14.3 °F 11.4 °F 30.45 in Calm   1.0 mph 88% 0.00 in 30.0 W/m2 BKN
07:45 14.4 °F 11.2 °F 30.45 in Calm     87% 0.00 in 32.0 W/m2 BKN
07:50 14.5 °F 11.6 °F 30.45 in Calm   2.0 mph 88% 0.00 in 51.0 W/m2 BKN
07:55 14.8 °F 11.6 °F 30.45 in NW 1.0 mph 4.0 mph 87% 0.00 in 76.0 W/m2 BKN
08:00 15.1 °F 11.9 °F 30.45 in Calm   3.0 mph 87% 0.00 in 90.0 W/m2 BKN
08:10 16.0 °F 12.6 °F 30.45 in Calm   3.0 mph 86% 0.00 in 113.0 W/m2 BKN
08:15 16.4 °F 12.7 °F 30.44 in Calm   2.0 mph 85% 0.00 in 134.0 W/m2 BKN
08:20 16.8 °F 13.0 °F 30.44 in Calm   3.0 mph 85% 0.00 in 104.0 W/m2 BKN
08:25 17.0 °F 13.0 °F 30.44 in Calm   3.0 mph 84% 0.00 in 72.0 W/m2 BKN
08:30 17.1 °F 12.8 °F 30.44 in Calm   2.0 mph 83% 0.00 in 74.0 W/m2 BKN
08:35 17.2 °F 12.9 °F 30.43 in Calm   2.0 mph 83% 0.00 in 81.0 W/m2 BKN
08:40 17.2 °F 12.9 °F 30.44 in NNW 1.0 mph 2.0 mph 83% 0.00 in 97.0 W/m2 BKN
08:45 17.2 °F 12.6 °F 30.44 in NNW 1.0 mph 3.0 mph 82% 0.00 in 111.0 W/m2 BKN
08:50 17.4 °F 12.8 °F 30.43 in Calm   1.0 mph 82% 0.00 in 116.0 W/m2 BKN
08:55 17.3 °F 12.7 °F 30.44 in Calm     82% 0.00 in 146.0 W/m2 BKN
09:00 17.3 °F 12.8 °F 30.44 in Calm   2.0 mph 82% 0.00 in 146.0 W/m2 BKN
09:10 18.2 °F 13.9 °F 30.43 in North 1.0 mph 3.0 mph 83% 0.00 in 200.0 W/m2 BKN
09:15 18.4 °F 13.8 °F 30.42 in NNE 1.0 mph 3.0 mph 82% 0.00 in 178.0 W/m2 BKN
09:20 18.2 °F 13.3 °F 30.42 in Calm   2.0 mph 81% 0.00 in 186.0 W/m2 BKN
09:25 18.4 °F 13.6 °F 30.42 in Calm   1.0 mph 81% 0.00 in 211.0 W/m2 BKN
09:30 18.9 °F 13.7 °F 30.42 in Calm   3.0 mph 80% 0.00 in 313.0 W/m2 BKN
09:35 19.8 °F 14.4 °F 30.42 in NE 1.0 mph 2.0 mph 79% 0.00 in 338.0 W/m2 BKN
09:40 21.3 °F 15.5 °F 30.42 in North 1.0 mph 3.0 mph 78% 0.00 in 318.0 W/m2 BKN
09:45 21.7 °F 15.9 °F 30.42 in NNW 2.0 mph 4.0 mph 78% 0.00 in 318.0 W/m2 BKN
09:50 21.3 °F 15.2 °F 30.42 in NNW 2.0 mph 3.0 mph 77% 0.00 in 385.0 W/m2 BKN
10:00 20.9 °F 15.4 °F 30.42 in North 1.0 mph 2.0 mph 79% 0.00 in 336.0 W/m2 OVC
10:10 21.4 °F 15.9 °F 30.41 in North 1.0 mph 3.0 mph 79% 0.00 in 316.0 W/m2 OVC
10:15 21.5 °F 15.7 °F 30.41 in North 1.0 mph 3.0 mph 78% 0.00 in 316.0 W/m2 OVC
10:20 21.7 °F 16.2 °F 30.41 in North 2.0 mph 4.0 mph 79% 0.00 in 248.0 W/m2 OVC
10:25 21.7 °F 16.2 °F 30.41 in NNW 1.0 mph 4.0 mph 79% 0.00 in 327.0 W/m2 OVC
10:30 21.2 °F 15.7 °F 30.41 in North 2.0 mph 4.0 mph 79% 0.00 in 383.0 W/m2 OVC
10:35 20.9 °F 15.4 °F 30.41 in North 2.0 mph 5.0 mph 79% 0.00 in 415.0 W/m2 BKN
10:40 21.5 °F 16.0 °F 30.41 in North 1.0 mph 7.0 mph 79% 0.00 in 420.0 W/m2 BKN
10:45 21.4 °F 15.9 °F 30.41 in NNE 1.0 mph 4.0 mph 79% 0.00 in 345.0 W/m2 BKN
10:50 21.7 °F 16.2 °F 30.40 in North 1.0 mph 4.0 mph 79% 0.00 in 338.0 W/m2 BKN
10:55 22.5 °F 17.0 °F 30.40 in North 2.0 mph 4.0 mph 79% 0.00 in 424.0 W/m2 BKN
11:00 22.6 °F 16.8 °F 30.39 in North 2.0 mph 3.0 mph 78% 0.00 in 264.0 W/m2 BKN
11:10 23.1 °F 16.3 °F 30.40 in NNW 1.0 mph 4.0 mph 75% 0.00 in 603.0 W/m2 BKN
11:15 22.2 °F 16.1 °F 30.39 in North 1.0 mph 3.0 mph 77% 0.00 in 548.0 W/m2 BKN
11:20 23.3 °F 17.2 °F 30.39 in North 1.0 mph 4.0 mph 77% 0.00 in 656.0 W/m2 BKN
11:25 23.4 °F 17.2 °F 30.39 in North 1.0 mph 3.0 mph 77% 0.00 in 612.0 W/m2 BKN
11:30 23.9 °F 17.2 °F 30.38 in North 2.0 mph 3.0 mph 75% 0.00 in 527.0 W/m2 BKN
11:35 25.2 °F 18.1 °F 30.38 in North 1.0 mph 4.0 mph 74% 0.00 in 394.0 W/m2 BKN
11:40 25.2 °F 17.8 °F 30.38 in NNW 1.0 mph 3.0 mph 73% 0.00 in 475.0 W/m2 BKN
11:45 25.0 °F 17.6 °F 30.38 in North 1.0 mph 4.0 mph 73% 0.00 in 429.0 W/m2 BKN
11:50 24.3 °F 17.5 °F 30.37 in North 2.0 mph 4.0 mph 75% 0.00 in 413.0 W/m2 BKN
11:54 24.4 °F 17.9 °F 30.37 in North 2.0 mph 4.0 mph 76% 0.00 in 438.0 W/m2 BKN
12:00 24.4 °F 17.3 °F 30.37 in North 2.0 mph 4.0 mph 74% 0.00 in 343.0 W/m2 BKN
12:10 23.8 °F 17.3 °F 30.36 in North 3.0 mph 5.0 mph 76% 0.00 in 350.0 W/m2 BKN
12:15 23.8 °F 17.1 °F 30.36 in NNW 1.0 mph 4.0 mph 75% 0.00 in 448.0 W/m2 BKN
12:20 24.1 °F 17.4 °F 30.36 in NNW 2.0 mph 4.0 mph 75% 0.00 in 496.0 W/m2 BKN
12:25 25.0 °F 18.2 °F 30.36 in North 1.0 mph 4.0 mph 75% 0.00 in 527.0 W/m2 BKN
12:30 25.4 °F 17.9 °F 30.36 in NNW 2.0 mph 4.0 mph 73% 0.00 in 671.0 W/m2 BKN
12:35 26.2 °F 18.7 °F 30.35 in NNW 1.0 mph 5.0 mph 73% 0.00 in 738.0 W/m2 BKN
12:40 26.3 °F 18.5 °F 30.35 in North 2.0 mph 4.0 mph 72% 0.00 in 700.0 W/m2 BKN
12:45 26.6 °F 18.5 °F 30.35 in North 2.0 mph 5.0 mph 71% 0.00 in 547.0 W/m2 BKN
12:50 27.0 °F 18.8 °F 30.35 in North 2.0 mph 5.0 mph 71% 0.00 in 638.0 W/m2 BKN
12:55 26.9 °F 18.1 °F 30.35 in NNW 2.0 mph 8.0 mph 69% 0.00 in 606.0 W/m2 BKN
13:10 25.1 °F 17.0 °F 30.34 in NNE 2.0 mph 5.0 mph 71% 0.00 in 220.0 W/m2 BKN
13:15 23.8 °F 16.1 °F 30.34 in NNE 2.0 mph 3.0 mph 72% 0.00 in 200.0 W/m2 BKN
13:20 23.7 °F 16.4 °F 30.34 in NNE 1.0 mph 4.0 mph 73% 0.00 in 185.0 W/m2 BKN
13:25 23.5 °F 16.4 °F 30.34 in NNE 2.0 mph 6.0 mph 74% 0.00 in 176.0 W/m2 BKN
13:30 23.5 °F 17.0 °F 30.34 in North 2.0 mph 7.0 mph 76% 0.00 in 165.0 W/m2 BKN
13:35 23.7 °F 16.9 °F 30.35 in North 1.0 mph 4.0 mph 75% 0.00 in 146.0 W/m2 BKN
13:40 23.6 °F 16.8 °F 30.34 in North 1.0 mph 4.0 mph 75% 0.00 in 132.0 W/m2 BKN
13:45 23.3 °F 16.5 °F 30.34 in North 2.0 mph 6.0 mph 75% 0.00 in 116.0 W/m2 BKN
13:49 22.9 °F 16.2 °F 30.34 in North 2.0 mph 4.0 mph 75% 0.00 in 93.0 W/m2 BKN
13:55 22.7 °F 15.9 °F 30.34 in North 1.0 mph 4.0 mph 75% 0.00 in 77.0 W/m2 BKN
14:00 22.7 °F 15.7 °F 30.34 in Calm   4.0 mph 74% 0.00 in 105.0 W/m2 BKN
14:10 23.0 °F 16.9 °F 30.34 in NNE 1.0 mph 5.0 mph 77% 0.00 in 193.0 W/m2 -SN
14:15 22.9 °F 17.1 °F 30.34 in North 1.0 mph 3.0 mph 78% 0.00 in 209.0 W/m2 -SN
14:20 23.0 °F 16.9 °F 30.34 in Calm   2.0 mph 77% 0.00 in 137.0 W/m2 -SN
14:25 22.9 °F 17.1 °F 30.34 in North 1.0 mph 3.0 mph 78% 0.00 in 118.0 W/m2 -SN
14:30 22.6 °F 17.1 °F 30.34 in North 1.0 mph 2.0 mph 79% 0.00 in 141.0 W/m2 -SN
14:34 22.7 °F 17.7 °F 30.34 in North 2.0 mph 4.0 mph 81% 0.00 in 158.0 W/m2 -SN
14:40 22.8 °F 17.8 °F 30.34 in NNE 2.0 mph 3.0 mph 81% 0.00 in 165.0 W/m2 -SN
14:45 22.9 °F 17.9 °F 30.34 in NNE 1.0 mph 3.0 mph 81% 0.00 in 156.0 W/m2 -SN
14:50 22.8 °F 17.8 °F 30.34 in Calm   2.0 mph 81% 0.00 in 148.0 W/m2 -SN
14:55 22.8 °F 17.8 °F 30.35 in Calm   2.0 mph 81% 0.00 in 146.0 W/m2 -SN
15:00 23.1 °F 17.8 °F 30.34 in NNE 1.0 mph 2.0 mph 80% 0.00 in 144.0 W/m2 -SN
15:10 23.0 °F 17.5 °F 30.35 in Calm   2.0 mph 79% 0.00 in 130.0 W/m2 -SN
15:15 22.9 °F 17.3 °F 30.35 in Calm     79% 0.00 in 121.0 W/m2 -SN
15:20 23.0 °F 17.5 °F 30.36 in Calm   1.0 mph 79% 0.00 in 118.0 W/m2 -SN
15:25 22.9 °F 17.4 °F 30.36 in Calm   1.0 mph 79% 0.00 in 123.0 W/m2 -SN
15:30 23.2 °F 17.7 °F 30.36 in Calm   1.0 mph 79% 0.00 in 146.0 W/m2 OVC
15:35 23.7 °F 18.4 °F 30.36 in Calm   2.0 mph 80% 0.00 in 149.0 W/m2 OVC
15:40 24.0 °F 18.1 °F 30.36 in Calm   2.0 mph 78% 0.00 in 162.0 W/m2 OVC
15:45 24.1 °F 17.9 °F 30.36 in NNE 1.0 mph 3.0 mph 77% 0.00 in 236.0 W/m2 OVC
15:50 24.6 °F 18.4 °F 30.37 in Calm   3.0 mph 77% 0.00 in 178.0 W/m2 OVC
15:55 24.4 °F 17.6 °F 30.37 in NNE 1.0 mph 2.0 mph 75% 0.00 in 135.0 W/m2 OVC
16:00 24.7 °F 17.9 °F 30.37 in NNE 1.0 mph 3.0 mph 75% 0.00 in 91.0 W/m2 OVC
16:10 24.3 °F 17.2 °F 30.37 in NNE 1.0 mph 3.0 mph 74% 0.00 in 56.0 W/m2 OVC
16:15 24.1 °F 17.0 °F 30.38 in Calm   2.0 mph 74% 0.00 in 44.0 W/m2 BKN
16:20 23.8 °F 17.0 °F 30.38 in NNE 1.0 mph 3.0 mph 75% 0.00 in 44.0 W/m2 BKN
16:25 23.6 °F 16.8 °F 30.39 in NNE 1.0 mph 2.0 mph 75% 0.00 in 42.0 W/m2 BKN
16:30 23.2 °F 16.4 °F 30.39 in NNE 1.0 mph 2.0 mph 75% 0.00 in 44.0 W/m2 BKN
16:35 23.3 °F 16.9 °F 30.39 in Calm   2.0 mph 76% 0.00 in 47.0 W/m2 BKN
16:40 23.4 °F 16.9 °F 30.39 in Calm   2.0 mph 76% 0.00 in 37.0 W/m2 BKN
16:45 23.3 °F 17.2 °F 30.39 in Calm   1.0 mph 77% 0.00 in 25.0 W/m2 BKN
16:50 23.3 °F 17.2 °F 30.39 in NNE 1.0 mph 2.0 mph 77% 0.00 in 26.0 W/m2 BKN
16:55 23.3 °F 17.2 °F 30.39 in Calm   1.0 mph 77% 0.00 in 30.0 W/m2 BKN
17:00 23.2 °F 17.1 °F 30.39 in Calm   1.0 mph 77% 0.00 in 33.0 W/m2 BKN
17:10 23.1 °F 16.7 °F 30.39 in Calm     76% 0.00 in 21.0 W/m2 BKN
17:15 23.3 °F 17.2 °F 30.40 in Calm   1.0 mph 77% 0.00 in 14.0 W/m2 BKN
17:20 23.4 °F 17.3 °F 30.40 in Calm     77% 0.00 in 11.0 W/m2 BKN
17:25 23.4 °F 17.3 °F 30.40 in Calm   1.0 mph 77% 0.00 in 5.0 W/m2 BKN
17:30 23.3 °F 17.5 °F 30.40 in Calm   1.0 mph 78% 0.00 in 0.0 W/m2 BKN
17:35 23.3 °F 17.5 °F 30.40 in Calm   1.0 mph 78% 0.00 in 0.0 W/m2 OVC
17:40 23.4 °F 17.9 °F 30.41 in Calm   1.0 mph 79% 0.00 in 0.0 W/m2 OVC
17:44 23.5 °F 18.2 °F 30.41 in Calm   1.0 mph 80% 0.00 in 0.0 W/m2 OVC
17:50 23.4 °F 18.4 °F 30.41 in Calm     81% 0.00 in 0.0 W/m2 OVC
17:55 23.4 °F 18.4 °F 30.41 in Calm   1.0 mph 81% 0.00 in 0.0 W/m2 -SN
18:00 23.4 °F 18.7 °F 30.42 in Calm   1.0 mph 82% 0.00 in 0.0 W/m2 -SN
18:10 23.4 °F 19.3 °F 30.41 in Calm   2.0 mph 84% 0.00 in 0.0 W/m2 -SN
18:15 23.3 °F 19.5 °F 30.42 in Calm   2.0 mph 85% 0.00 in 0.0 W/m2 -SN
18:20 23.4 °F 19.8 °F 30.42 in Calm   1.0 mph 86% 0.00 in 0.0 W/m2 -SN
18:25 23.3 °F 20.0 °F 30.42 in Calm   1.0 mph 87% 0.00 in 0.0 W/m2 -SN
18:30 23.1 °F 19.8 °F 30.42 in NNE 1.0 mph 2.0 mph 87% 0.00 in 0.0 W/m2 -SN
18:34 23.1 °F 20.1 °F 30.43 in Calm   2.0 mph 88% 0.00 in 0.0 W/m2 -SN
18:40 23.2 °F 20.1 °F 30.43 in NW 1.0 mph 2.0 mph 88% 0.00 in 0.0 W/m2 -SN
18:45 23.2 °F 20.4 °F 30.43 in Calm   1.0 mph 89% 0.00 in 0.0 W/m2 -SN
18:50 23.2 °F 20.4 °F 30.43 in Calm   1.0 mph 89% 0.00 in 0.0 W/m2 -SN
18:55 23.2 °F 20.7 °F 30.43 in Calm   1.0 mph 90% 0.00 in 0.0 W/m2 -SN
19:00 23.2 °F 20.7 °F 30.44 in Calm   1.0 mph 90% 0.00 in 0.0 W/m2 -SN
19:10 23.2 °F 20.7 °F 30.44 in NW 1.0 mph 4.0 mph 90% 0.00 in 0.0 W/m2 -SN
19:15 23.1 °F 20.6 °F 30.44 in NNW 1.0 mph 3.0 mph 90% 0.00 in 0.0 W/m2 -SN
19:20 22.9 °F 20.4 °F 30.43 in NNW 1.0 mph 4.0 mph 90% 0.00 in 0.0 W/m2 -SN
19:25 22.6 °F 20.1 °F 30.43 in North 1.0 mph 3.0 mph 90% 0.00 in 0.0 W/m2 -SN
19:30 22.4 °F 19.9 °F 30.44 in North 1.0 mph 3.0 mph 90% 0.00 in 0.0 W/m2 -SN
19:35 22.3 °F 19.8 °F 30.44 in Calm   4.0 mph 90% 0.00 in 0.0 W/m2 -SN
Broomfield, Colorado USA
Compliments of Weather Underground - 4 mb